This is the latest recevied weather packets stored in our database for station/object N2PUI. If no packets are shown the sender has not sent any weather packets the latest 10 day(s).
| Time | Temp. | Humidity | Pressure | Rain* | Wind** | Luminosity | Snow |
|---|---|---|---|---|---|---|---|
| 1777903663 | 15° C | 45% | 1010.3 hPa | 0 mm | - | 666 W/m² | - |
| 1777903359 | 14.44° C | 45% | 1010.4 hPa | 0 mm | - | 658 W/m² | - |
| 1777903056 | 14.44° C | 47% | 1010.4 hPa | 0 mm | - | 652 W/m² | - |
| 1777902752 | 14.44° C | 45% | 1010.4 hPa | 0 mm | - | 627 W/m² | - |
| 1777902146 | 13.33° C | 49% | 1010.3 hPa | 0 mm | - | 558 W/m² | - |
| 1777901845 | 12.78° C | 49% | 1010.5 hPa | 0 mm | - | 581 W/m² | - |
| 1777901542 | 12.78° C | 49% | 1010.6 hPa | 0 mm | - | 553 W/m² | - |
| 1777901239 | 12.22° C | 50% | 1010.7 hPa | 0 mm | - | 488 W/m² | - |
| 1777900936 | 11.67° C | 52% | 1010.7 hPa | 0 mm | - | 465 W/m² | - |
| 1777900634 | 11.11° C | 51% | 1010.5 hPa | 0 mm | - | 277 W/m² | - |
| 1777900331 | 11.11° C | 53% | 1010.8 hPa | 0 mm | - | 274 W/m² | - |
| 1777900028 | 11.11° C | 53% | 1010.7 hPa | 0 mm | - | 159 W/m² | - |
| 1777899724 | 10.56° C | 54% | 1010.8 hPa | 0 mm | - | 123 W/m² | - |
| 1777898816 | 10.56° C | 53% | 1010.8 hPa | 0 mm | - | 108 W/m² | - |
| 1777898211 | 10.56° C | 53% | 1011.1 hPa | 0 mm | - | 91 W/m² | - |
| 1777897908 | 10° C | 55% | 1011.1 hPa | 0 mm | - | 103 W/m² | - |
| 1777897604 | 10° C | 54% | 1010.9 hPa | 0 mm | - | 111 W/m² | - |
| 1777897299 | 10° C | 55% | 1011.1 hPa | 0 mm | - | 105 W/m² | - |
| 1777896996 | 10° C | 54% | 1011.2 hPa | 0 mm | - | 87 W/m² | - |
| 1777896693 | 10° C | 55% | 1011.3 hPa | 0 mm | - | 82 W/m² | - |
| 1777896390 | 10° C | 55% | 1011.2 hPa | 0 mm | - | 72 W/m² | - |
| 1777896088 | 10° C | 55% | 1011.4 hPa | 0 mm | - | 75 W/m² | - |
| 1777895786 | 10° C | 54% | 1011.1 hPa | 0 mm | - | 63 W/m² | - |
| 1777895482 | 10° C | 55% | 1011.2 hPa | 0 mm | - | 59 W/m² | - |
| 1777895181 | 10° C | 54% | 1010.9 hPa | 0 mm | - | 91 W/m² | - |
* Rain latest hour (hover to see other rain measurements)
** Current wind speed in m/s (hover to see current wind gust speed)